Time;durP1;ratioP1;P1;durP2;ratioP2;P2;SDS_P1;SDS_P2;PMS_P1;PMS_P2;Temp;Humidity;BMP_temperature;BMP_pressure;BME280_temperature;BME280_humidity;BME280_pressure;Samples;Min_cycle;Max_cycle;Signal;HPM_P1;HPM_P2
2023/09/19 07:34:10;;;;;;;11.60;10.60;;;;;;;;;;1234060;22;20046;-76
2023/09/19 07:36:38;;;;;;;15.75;10.35;;;;;;;;;;4976070;28;20106;-75
2023/09/19 07:39:06;;;;;;;13.07;11.82;;;;;;;;;;4993691;28;20042;-75
2023/09/19 07:41:33;;;;;;;14.80;11.27;;;;;;;;;;4993832;28;20038;-75
2023/09/19 07:43:59;;;;;;;19.65;11.13;;;;;;;;;;4993202;28;20042;-75
2023/09/19 07:46:26;;;;;;;10.35;9.32;;;;;;;;;;4993411;28;20108;-74
2023/09/19 07:48:55;;;;;;;12.05;10.27;;;;;;;;;;4975657;28;20101;-74
2023/09/19 07:51:24;;;;;;;12.48;11.10;;;;;;;;;;4976691;28;20399;-75
2023/09/19 07:53:50;;;;;;;9.07;7.75;;;;;;;;;;4975577;28;20049;-75
2023/09/19 07:56:19;;;;;;;11.90;10.63;;;;;;;;;;4993256;28;20083;-75
2023/09/19 07:58:45;;;;;;;14.93;10.35;;;;;;;;;;4975468;28;20096;-75
2023/09/19 08:01:12;;;;;;;13.02;11.43;;;;;;;;;;4993244;28;20170;-75
2023/09/19 08:03:40;;;;;;;11.45;10.35;;;;;;;;;;4992952;28;20153;-75
2023/09/19 08:06:06;;;;;;;12.73;10.05;;;;;;;;;;4993210;28;20391;-75
2023/09/19 08:08:34;;;;;;;16.45;10.50;;;;;;;;;;4993262;28;20061;-74
2023/09/19 08:11:01;;;;;;;17.23;10.50;;;;;;;;;;4991623;28;20075;-76
2023/09/19 08:13:27;;;;;;;13.27;9.65;;;;;;;;;;4959701;28;20431;-75
2023/09/19 08:15:53;;;;;;;12.70;9.55;;;;;;;;;;4992525;28;20116;-74
2023/09/19 08:18:21;;;;;;;11.55;10.25;;;;;;;;;;4992802;28;20108;-76
2023/09/19 08:20:50;;;;;;;12.98;11.55;;;;;;;;;;4975496;28;20470;-76
2023/09/19 08:23:19;;;;;;;12.20;10.88;;;;;;;;;;4975674;28;20151;-76
2023/09/19 08:25:46;;;;;;;11.73;9.30;;;;;;;;;;4991605;28;20573;-75
2023/09/19 08:28:14;;;;;;;12.52;9.80;;;;;;;;;;4975558;28;20046;-75
2023/09/19 08:30:40;;;;;;;17.73;10.18;;;;;;;;;;4992643;28;20568;-76
2023/09/19 08:33:07;;;;;;;17.33;11.15;;;;;;;;;;4975744;28;20074;-77
2023/09/19 08:35:33;;;;;;;18.40;10.70;;;;;;;;;;4992600;28;20133;-75
2023/09/19 08:38:03;;;;;;;15.27;11.00;;;;;;;;;;4990374;28;20046;-76
2023/09/19 08:40:33;;;;;;;15.27;9.25;;;;;;;;;;4974751;28;20038;-76
2023/09/19 08:43:00;;;;;;;15.43;8.70;;;;;;;;;;4992634;28;20549;-75
2023/09/19 08:45:29;;;;;;;21.77;12.48;;;;;;;;;;4992622;28;20474;-77
2023/09/19 08:48:14;;;;;;;10.13;9.10;;;;;;;;;;4992499;28;20542;-77
2023/09/19 08:50:51;;;;;;;12.20;8.27;;;;;;;;;;4992327;28;20105;-77
2023/09/19 08:53:27;;;;;;;21.05;10.80;;;;;;;;;;4974966;28;20093;-77
2023/09/19 08:55:56;;;;;;;14.57;10.30;;;;;;;;;;4975184;28;20042;-76
2023/09/19 08:58:24;;;;;;;14.88;10.93;;;;;;;;;;4975112;28;20046;-77
2023/09/19 09:00:50;;;;;;;14.32;10.05;;;;;;;;;;4942096;28;20105;-77
2023/09/19 09:03:19;;;;;;;11.98;10.35;;;;;;;;;;4974907;28;20050;-77
2023/09/19 09:05:47;;;;;;;13.15;11.27;;;;;;;;;;4972578;28;20097;-77
2023/09/19 09:08:13;;;;;;;10.60;9.70;;;;;;;;;;4987377;28;20042;-75
2023/09/19 09:10:40;;;;;;;13.23;10.50;;;;;;;;;;4982520;28;20085;-75
2023/09/19 09:13:06;;;;;;;13.63;10.50;;;;;;;;;;4965698;28;20046;-76
2023/09/19 09:15:35;;;;;;;11.43;10.32;;;;;;;;;;4983111;28;20039;-77
2023/09/19 09:18:01;;;;;;;11.52;10.38;;;;;;;;;;4990305;28;20120;-76
2023/09/19 09:20:27;;;;;;;9.18;8.30;;;;;;;;;;4979079;28;20046;-77
2023/09/19 09:22:54;;;;;;;13.60;10.50;;;;;;;;;;4997121;28;20072;-76
2023/09/19 09:25:23;;;;;;;14.38;10.75;;;;;;;;;;4995083;28;20034;-77
2023/09/19 09:28:01;;;;;;;14.75;10.82;;;;;;;;;;4975859;28;20524;-77
2023/09/19 09:30:34;;;;;;;12.65;10.55;;;;;;;;;;4993088;28;20050;-77
2023/09/19 09:33:13;;;;;;;16.95;10.75;;;;;;;;;;4974323;28;20053;-77
2023/09/19 09:35:53;;;;;;;12.38;10.70;;;;;;;;;;4973948;28;20053;-77
2023/09/19 09:38:19;;;;;;;15.38;10.80;;;;;;;;;;4957838;28;20057;-77
2023/09/19 09:40:47;;;;;;;13.18;9.88;;;;;;;;;;4970231;28;20047;-77
2023/09/19 09:43:25;;;;;;;14.40;11.38;;;;;;;;;;4939033;28;20051;-77
2023/09/19 09:46:08;;;;;;;10.23;8.93;;;;;;;;;;4971644;28;20075;-77
2023/09/19 09:48:38;;;;;;;15.50;9.77;;;;;;;;;;4955940;28;20046;-76
2023/09/19 09:51:07;;;;;;;10.73;8.57;;;;;;;;;;4971476;28;20569;-77
2023/09/19 09:53:34;;;;;;;5.95;5.38;;;;;;;;;;4954863;28;20223;-76
2023/09/19 09:56:01;;;;;;;11.05;9.90;;;;;;;;;;4937985;28;20162;-77
2023/09/19 09:58:31;;;;;;;10.52;9.35;;;;;;;;;;4972070;28;20419;-77
2023/09/19 10:00:58;;;;;;;8.00;7.18;;;;;;;;;;4953899;28;20050;-77
2023/09/19 10:03:32;;;;;;;11.50;9.80;;;;;;;;;;4938199;28;20055;-77
2023/09/19 10:06:08;;;;;;;9.80;8.88;;;;;;;;;;4971446;28;20049;-77
2023/09/19 10:08:36;;;;;;;5.60;5.00;;;;;;;;;;4975131;28;20053;-77
2023/09/19 10:11:15;;;;;;;11.30;10.30;;;;;;;;;;4988892;28;20049;-77
2023/09/19 10:13:42;;;;;;;16.70;10.68;;;;;;;;;;4957548;28;20050;-77
2023/09/19 10:16:10;;;;;;;12.95;10.75;;;;;;;;;;4972917;28;20379;-77
2023/09/19 10:18:36;;;;;;;13.07;9.35;;;;;;;;;;4973841;28;20775;-77
2023/09/19 10:21:04;;;;;;;10.15;9.35;;;;;;;;;;5005780;28;20045;-77
2023/09/19 10:23:30;;;;;;;11.27;10.35;;;;;;;;;;4973837;28;20145;-78
2023/09/19 10:25:57;;;;;;;10.60;8.52;;;;;;;;;;4990591;28;20042;-76
2023/09/19 10:28:23;;;;;;;15.40;10.73;;;;;;;;;;4973290;28;20097;-77
2023/09/19 10:30:51;;;;;;;13.25;10.07;;;;;;;;;;4991353;28;20116;-77
2023/09/19 10:33:20;;;;;;;8.48;7.72;;;;;;;;;;4974483;28;20109;-77
2023/09/19 10:35:47;;;;;;;12.90;9.25;;;;;;;;;;4973408;28;20100;-77
2023/09/19 10:38:14;;;;;;;15.30;9.90;;;;;;;;;;4991455;28;20547;-77
2023/09/19 10:40:43;;;;;;;12.68;9.93;;;;;;;;;;4969255;28;20042;-77
2023/09/19 10:43:19;;;;;;;10.82;9.93;;;;;;;;;;4971916;28;20047;-77
2023/09/19 10:45:46;;;;;;;13.25;9.60;;;;;;;;;;4971464;28;20130;-78
2023/09/19 10:48:12;;;;;;;15.13;10.70;;;;;;;;;;4954350;28;20090;-77
2023/09/19 10:50:44;;;;;;;11.77;9.70;;;;;;;;;;4971539;28;20126;-77
2023/09/19 10:53:11;;;;;;;11.23;9.77;;;;;;;;;;4970954;28;20419;-78
2023/09/19 10:55:37;;;;;;;13.10;9.80;;;;;;;;;;4938108;28;20039;-77
2023/09/19 10:58:14;;;;;;;17.27;9.48;;;;;;;;;;4953688;28;20074;-76
2023/09/19 11:01:10;;;;;;;15.30;10.45;;;;;;;;;;4955576;28;20507;-76
2023/09/19 11:03:42;;;;;;;12.23;10.50;;;;;;;;;;4959476;28;20058;-77
2023/09/19 11:06:16;;;;;;;11.05;9.70;;;;;;;;;;4958825;28;20045;-77
2023/09/19 11:08:56;;;;;;;6.68;6.15;;;;;;;;;;4957619;28;20057;-77
2023/09/19 11:11:55;;;;;;;13.02;10.02;;;;;;;;;;4958087;28;20062;-78
2023/09/19 11:14:25;;;;;;;10.55;9.32;;;;;;;;;;4953454;28;20133;-77
2023/09/19 11:17:07;;;;;;;12.10;11.02;;;;;;;;;;4974294;28;20089;-79
2023/09/19 11:19:54;;;;;;;11.30;9.27;;;;;;;;;;4984132;28;20047;-77
2023/09/19 11:22:22;;;;;;;14.85;10.35;;;;;;;;;;4984804;28;20117;-77
2023/09/19 11:24:50;;;;;;;12.73;11.50;;;;;;;;;;4965097;28;20057;-77
2023/09/19 11:27:17;;;;;;;11.32;10.13;;;;;;;;;;4983620;28;20046;-76
2023/09/19 11:29:44;;;;;;;12.05;9.23;;;;;;;;;;4967425;28;20121;-76
2023/09/19 11:32:10;;;;;;;9.55;8.55;;;;;;;;;;4982776;28;20045;-76
2023/09/19 11:34:37;;;;;;;12.73;10.68;;;;;;;;;;4983928;28;20056;-77
2023/09/19 11:37:23;;;;;;;11.57;10.48;;;;;;;;;;4983968;28;20134;-78
2023/09/19 11:40:18;;;;;;;18.40;10.95;;;;;;;;;;4944658;28;20045;-77
2023/09/19 11:42:50;;;;;;;10.05;9.05;;;;;;;;;;4984190;28;20043;-77
2023/09/19 11:45:35;;;;;;;17.45;11.80;;;;;;;;;;4982993;28;20252;-77
2023/09/19 11:48:02;;;;;;;14.35;11.50;;;;;;;;;;4983152;28;20043;-77
2023/09/19 11:50:28;;;;;;;16.70;11.10;;;;;;;;;;4965583;28;20507;-76
2023/09/19 11:52:55;;;;;;;16.38;11.05;;;;;;;;;;4984073;28;20677;-77
2023/09/19 11:55:21;;;;;;;14.52;11.00;;;;;;;;;;4966624;28;20585;-77
2023/09/19 11:57:51;;;;;;;14.00;10.85;;;;;;;;;;4981010;28;20049;-77
2023/09/19 12:00:18;;;;;;;12.57;10.90;;;;;;;;;;4965096;28;20035;-76
2023/09/19 12:02:46;;;;;;;13.55;10.55;;;;;;;;;;4982241;28;20050;-77
2023/09/19 12:05:12;;;;;;;17.65;11.95;;;;;;;;;;4950873;28;20422;-77
2023/09/19 12:07:42;;;;;;;14.55;11.27;;;;;;;;;;4984474;28;20069;-77
2023/09/19 12:10:11;;;;;;;18.80;12.18;;;;;;;;;;4983143;28;20068;-78
2023/09/19 12:12:37;;;;;;;15.63;10.25;;;;;;;;;;4950040;28;20140;-76
2023/09/19 12:15:03;;;;;;;12.73;10.57;;;;;;;;;;4981318;28;20062;-77
2023/09/19 12:17:36;;;;;;;16.67;11.43;;;;;;;;;;4965945;28;20034;-77
2023/09/19 12:20:13;;;;;;;15.95;10.73;;;;;;;;;;4965558;28;20045;-77
2023/09/19 12:22:40;;;;;;;17.20;12.18;;;;;;;;;;4966117;28;20046;-77
2023/09/19 12:25:07;;;;;;;12.40;10.50;;;;;;;;;;4991466;28;20550;-77
2023/09/19 12:27:43;;;;;;;14.32;10.55;;;;;;;;;;4992911;28;20043;-77
2023/09/19 12:30:14;;;;;;;20.23;10.43;;;;;;;;;;4992550;28;20045;-77
2023/09/19 12:32:40;;;;;;;11.82;10.02;;;;;;;;;;4950631;28;20081;-77
2023/09/19 12:35:12;;;;;;;14.48;9.25;;;;;;;;;;4963641;28;20039;-76
2023/09/19 12:37:48;;;;;;;13.27;9.95;;;;;;;;;;4962307;28;20133;-77
2023/09/19 12:40:17;;;;;;;13.63;8.60;;;;;;;;;;4971567;28;20046;-77
2023/09/19 12:42:45;;;;;;;11.75;9.32;;;;;;;;;;4956449;28;20077;-78
2023/09/19 12:45:13;;;;;;;10.32;9.32;;;;;;;;;;4955812;28;20534;-77
2023/09/19 12:47:43;;;;;;;10.57;9.43;;;;;;;;;;4940070;28;20042;-77
2023/09/19 12:50:18;;;;;;;13.75;9.73;;;;;;;;;;4971492;28;20142;-78
2023/09/19 12:52:48;;;;;;;11.88;9.07;;;;;;;;;;4956197;28;20042;-77
2023/09/19 12:55:20;;;;;;;11.65;8.75;;;;;;;;;;4979417;28;20043;-76
2023/09/19 12:58:01;;;;;;;12.95;9.40;;;;;;;;;;4967452;28;20583;-77
2023/09/19 13:00:38;;;;;;;9.70;8.68;;;;;;;;;;4984940;28;20044;-77
2023/09/19 13:03:18;;;;;;;9.27;8.35;;;;;;;;;;4991820;28;20066;-76
2023/09/19 13:05:48;;;;;;;16.60;9.73;;;;;;;;;;4977717;28;20055;-77
2023/09/19 13:08:15;;;;;;;;;;;;;;;;;;4986620;28;20030;-76
2023/09/19 13:11:21;;;;;;;10.38;9.35;;;;;;;;;;4979937;28;19914;-77
2023/09/19 13:14:10;;;;;;;11.02;9.55;;;;;;;;;;4912965;29;20516;-77
2023/09/19 13:16:55;;;;;;;20.85;10.10;;;;;;;;;;4970433;28;20052;-77
2023/09/19 13:19:37;;;;;;;11.82;9.43;;;;;;;;;;4972418;28;20680;-77
2023/09/19 13:22:03;;;;;;;14.27;9.18;;;;;;;;;;4962385;28;20043;-77
2023/09/19 13:24:30;;;;;;;12.25;10.75;;;;;;;;;;4947582;28;20063;-77
2023/09/19 13:26:56;;;;;;;16.65;9.73;;;;;;;;;;4981168;28;20507;-77
2023/09/19 13:29:23;;;;;;;10.98;9.82;;;;;;;;;;4965538;28;20042;-78
2023/09/19 13:31:49;;;;;;;11.10;9.27;;;;;;;;;;4963212;28;20050;-78
2023/09/19 13:34:17;;;;;;;11.02;9.88;;;;;;;;;;4963446;28;20042;-76
2023/09/19 13:36:43;;;;;;;14.82;10.07;;;;;;;;;;4982122;28;20117;-77
2023/09/19 13:39:09;;;;;;;11.20;9.30;;;;;;;;;;4946538;28;20046;-77
2023/09/19 13:41:36;;;;;;;11.68;10.35;;;;;;;;;;4963655;28;20039;-77
2023/09/19 13:44:03;;;;;;;12.68;9.73;;;;;;;;;;4964916;28;20129;-77
2023/09/19 13:46:34;;;;;;;11.98;9.38;;;;;;;;;;4979766;28;20039;-77
2023/09/19 13:49:03;;;;;;;;;;;;;;;;;;4962235;28;20061;-77
2023/09/19 13:51:30;;;;;;;15.27;10.32;;;;;;;;;;4979980;28;20483;-78
2023/09/19 13:53:56;;;;;;;13.40;10.07;;;;;;;;;;4979423;28;20768;-78
2023/09/19 13:56:22;;;;;;;20.45;10.23;;;;;;;;;;4959817;28;20050;-77
2023/09/19 13:58:51;;;;;;;15.70;11.38;;;;;;;;;;4982404;28;20041;-77
2023/09/19 14:01:18;;;;;;;9.50;8.65;;;;;;;;;;4945713;28;20117;-77
2023/09/19 14:03:46;;;;;;;14.27;9.48;;;;;;;;;;4982037;28;20051;-77
2023/09/19 14:06:13;;;;;;;14.57;10.15;;;;;;;;;;4980634;28;20047;-76
2023/09/19 14:08:39;;;;;;;10.95;9.98;;;;;;;;;;4982785;28;20046;-77
2023/09/19 14:11:06;;;;;;;14.27;10.60;;;;;;;;;;4980322;28;20047;-76
2023/09/19 14:13:32;;;;;;;14.07;10.73;;;;;;;;;;4964802;28;20099;-77
2023/09/19 14:15:58;;;;;;;18.90;11.25;;;;;;;;;;4982343;28;20136;-77
2023/09/19 14:18:25;;;;;;;15.85;10.27;;;;;;;;;;4961077;28;20070;-77
2023/09/19 14:20:53;;;;;;;12.55;10.48;;;;;;;;;;4940618;28;20074;-77
2023/09/19 14:23:19;;;;;;;11.23;10.05;;;;;;;;;;4978221;28;20042;-76
2023/09/19 14:25:45;;;;;;;12.63;8.68;;;;;;;;;;4984272;28;20038;-77
2023/09/19 14:28:11;;;;;;;11.82;10.32;;;;;;;;;;4983904;28;20038;-78
2023/09/19 14:30:37;;;;;;;12.68;10.90;;;;;;;;;;4991073;28;20046;-76
2023/09/19 14:33:03;;;;;;;12.60;11.30;;;;;;;;;;4991073;28;20046;-77
2023/09/19 14:35:30;;;;;;;17.50;11.75;;;;;;;;;;4989466;28;20140;-76
2023/09/19 14:37:56;;;;;;;11.20;9.13;;;;;;;;;;4994574;28;20050;-76
2023/09/19 14:40:22;;;;;;;9.63;8.68;;;;;;;;;;4978054;28;20034;-77
2023/09/19 14:42:48;;;;;;;14.20;11.35;;;;;;;;;;4996447;28;20046;-76
2023/09/19 14:45:17;;;;;;;13.13;11.57;;;;;;;;;;4969303;28;20057;-75
2023/09/19 14:47:45;;;;;;;11.18;9.93;;;;;;;;;;4983698;28;20549;-78
2023/09/19 14:50:12;;;;;;;11.57;10.43;;;;;;;;;;4965965;28;20037;-77
2023/09/19 14:52:39;;;;;;;16.40;12.15;;;;;;;;;;4985159;28;20068;-77
2023/09/19 14:55:06;;;;;;;13.93;10.80;;;;;;;;;;4977886;28;20066;-77
2023/09/19 14:57:32;;;;;;;13.32;10.32;;;;;;;;;;4983399;28;20511;-77
2023/09/19 14:59:58;;;;;;;12.77;11.35;;;;;;;;;;4966027;28;20094;-77
2023/09/19 15:02:25;;;;;;;14.68;9.25;;;;;;;;;;4949128;28;20050;-77
2023/09/19 15:04:52;;;;;;;15.02;11.13;;;;;;;;;;4951342;28;20415;-78
2023/09/19 15:07:18;;;;;;;13.63;10.93;;;;;;;;;;4965585;28;20113;-78
2023/09/19 15:09:45;;;;;;;17.00;10.90;;;;;;;;;;4984366;28;20129;-78
2023/09/19 15:12:14;;;;;;;9.68;8.73;;;;;;;;;;4983108;28;20043;-78
2023/09/19 15:14:41;;;;;;;9.20;8.32;;;;;;;;;;4983920;28;20474;-77
2023/09/19 15:17:07;;;;;;;8.63;7.82;;;;;;;;;;4966218;28;20514;-76
2023/09/19 15:19:33;;;;;;;12.60;7.70;;;;;;;;;;4983313;28;20042;-77
2023/09/19 15:21:59;;;;;;;13.10;8.48;;;;;;;;;;4965786;28;20065;-77
2023/09/19 15:24:26;;;;;;;12.70;9.70;;;;;;;;;;4966714;28;20057;-78
2023/09/19 15:26:55;;;;;;;11.52;9.48;;;;;;;;;;4974701;28;20092;-77
2023/09/19 15:29:21;;;;;;;13.10;9.13;;;;;;;;;;4992441;28;20046;-76
2023/09/19 15:31:47;;;;;;;9.75;8.48;;;;;;;;;;4975583;28;20045;-77
2023/09/19 15:34:15;;;;;;;15.15;9.07;;;;;;;;;;4976621;28;20042;-77
2023/09/19 15:36:42;;;;;;;9.90;8.57;;;;;;;;;;4993711;28;20045;-76
2023/09/19 15:39:10;;;;;;;14.35;8.60;;;;;;;;;;4993773;28;20037;-77
2023/09/19 15:41:41;;;;;;;8.77;7.97;;;;;;;;;;4959364;28;20048;-77
2023/09/19 15:44:13;;;;;;;8.95;8.05;;;;;;;;;;4972553;28;20081;-77
2023/09/19 15:46:40;;;;;;;8.88;7.97;;;;;;;;;;4965329;28;20038;-77
2023/09/19 15:49:07;;;;;;;12.95;7.97;;;;;;;;;;4988624;28;20038;-76
2023/09/19 15:51:33;;;;;;;14.55;8.77;;;;;;;;;;4992557;28;20057;-77
2023/09/19 15:54:02;;;;;;;10.88;9.35;;;;;;;;;;4976288;28;20140;-76
2023/09/19 15:56:28;;;;;;;10.07;9.13;;;;;;;;;;4945089;28;20085;-76
2023/09/19 15:58:55;;;;;;;12.32;10.02;;;;;;;;;;4981591;28;20110;-77
2023/09/19 16:01:22;;;;;;;11.25;10.00;;;;;;;;;;5002517;28;20049;-77
2023/09/19 16:03:55;;;;;;;10.73;9.82;;;;;;;;;;4977215;28;20055;-77
2023/09/19 16:06:23;;;;;;;19.55;11.45;;;;;;;;;;4957015;28;20050;-78
2023/09/19 16:08:50;;;;;;;13.13;9.88;;;;;;;;;;4970803;28;20112;-78
2023/09/19 16:11:16;;;;;;;11.23;10.25;;;;;;;;;;4954734;28;20126;-77
2023/09/19 16:13:43;;;;;;;13.55;10.77;;;;;;;;;;4954796;28;20093;-77
2023/09/19 16:16:12;;;;;;;19.02;11.98;;;;;;;;;;4975551;28;20541;-77
2023/09/19 16:18:39;;;;;;;14.85;10.57;;;;;;;;;;4981710;28;20050;-77
2023/09/19 16:21:05;;;;;;;13.77;10.05;;;;;;;;;;4991075;28;20038;-77
2023/09/19 16:23:32;;;;;;;17.20;10.95;;;;;;;;;;4989359;28;20050;-77
2023/09/19 16:26:08;;;;;;;10.32;8.10;;;;;;;;;;4984535;28;20091;-76
2023/09/19 16:28:37;;;;;;;21.98;13.27;;;;;;;;;;4966185;28;20045;-75
2023/09/19 16:31:04;;;;;;;13.20;10.73;;;;;;;;;;4974263;28;20072;-77
2023/09/19 16:33:33;;;;;;;14.75;12.52;;;;;;;;;;4975113;28;20048;-77
2023/09/19 16:36:00;;;;;;;17.83;11.80;;;;;;;;;;4974718;28;20430;-77
2023/09/19 16:38:26;;;;;;;17.88;13.10;;;;;;;;;;4958906;28;20507;-77
2023/09/19 16:40:53;;;;;;;16.27;11.90;;;;;;;;;;4975334;28;20442;-75
2023/09/19 16:43:21;;;;;;;23.48;12.48;;;;;;;;;;4974945;28;20142;-77
2023/09/19 16:45:56;;;;;;;21.30;13.98;;;;;;;;;;4992659;28;20308;-75
2023/09/19 16:48:23;;;;;;;25.63;17.02;;;;;;;;;;4974871;28;20087;-77
2023/09/19 16:50:50;;;;;;;22.05;14.80;;;;;;;;;;4992309;28;20045;-77
2023/09/19 16:53:16;;;;;;;24.50;16.55;;;;;;;;;;4974325;28;20100;-77
2023/09/19 16:55:46;;;;;;;27.02;14.55;;;;;;;;;;4991019;28;20045;-77
2023/09/19 16:58:15;;;;;;;14.35;12.65;;;;;;;;;;4975704;28;20047;-81
2023/09/19 17:00:49;;;;;;;15.90;14.02;;;;;;;;;;4975904;28;20038;-82
2023/09/19 17:03:18;;;;;;;14.00;11.35;;;;;;;;;;4995475;28;20042;-82
2023/09/19 17:05:47;;;;;;;16.05;12.80;;;;;;;;;;4976275;28;20129;-80
2023/09/19 17:08:13;;;;;;;12.98;11.65;;;;;;;;;;4993348;28;20689;-82
2023/09/19 17:10:44;;;;;;;13.63;11.55;;;;;;;;;;4976360;28;20108;-80
2023/09/19 17:13:11;;;;;;;16.88;11.68;;;;;;;;;;4993358;28;20518;-83
2023/09/19 17:15:39;;;;;;;11.32;10.23;;;;;;;;;;4969837;28;20052;-82
2023/09/19 17:18:06;;;;;;;22.08;12.40;;;;;;;;;;4975131;28;20187;-82
2023/09/19 17:20:32;;;;;;;18.55;10.07;;;;;;;;;;4975050;28;20081;-82
2023/09/19 17:22:58;;;;;;;12.63;10.68;;;;;;;;;;4991368;28;20054;-82
2023/09/19 17:25:30;;;;;;;13.95;10.75;;;;;;;;;;4960049;28;20061;-83
2023/09/19 17:27:58;;;;;;;12.90;11.57;;;;;;;;;;4993226;28;20045;-82
2023/09/19 17:30:25;;;;;;;13.75;12.00;;;;;;;;;;4992935;28;20215;-82
2023/09/19 17:32:51;;;;;;;17.70;11.10;;;;;;;;;;4987150;28;20066;-83
2023/09/19 17:35:18;;;;;;;13.32;12.13;;;;;;;;;;4968137;28;20057;-82
2023/09/19 17:37:44;;;;;;;13.02;11.57;;;;;;;;;;4974498;28;20049;-82
2023/09/19 17:40:10;;;;;;;12.93;10.70;;;;;;;;;;4992405;28;20506;-79
2023/09/19 17:42:37;;;;;;;14.07;12.40;;;;;;;;;;4988462;28;20173;-81
2023/09/19 17:45:04;;;;;;;16.88;11.55;;;;;;;;;;4958477;28;20061;-80
2023/09/19 17:47:32;;;;;;;14.60;12.07;;;;;;;;;;4973591;28;20038;-81
2023/09/19 17:49:58;;;;;;;11.95;10.65;;;;;;;;;;4974397;28;20050;-81
2023/09/19 17:52:27;;;;;;;12.32;10.85;;;;;;;;;;4990823;28;20118;-80
2023/09/19 17:54:53;;;;;;;13.10;11.80;;;;;;;;;;4974312;28;20042;-80
2023/09/19 17:57:23;;;;;;;15.73;12.05;;;;;;;;;;4991180;28;20056;-79
2023/09/19 18:00:08;;;;;;;24.50;13.23;;;;;;;;;;4949781;28;20105;-81
2023/09/19 18:03:05;;;;;;;18.17;12.60;;;;;;;;;;4988152;28;20061;-75
2023/09/19 18:05:32;;;;;;;12.10;10.93;;;;;;;;;;4957029;28;20061;-75
2023/09/19 18:08:03;;;;;;;15.25;13.25;;;;;;;;;;4969628;28;20133;-73
2023/09/19 18:10:46;;;;;;;13.55;12.00;;;;;;;;;;4935968;28;20043;-72
2023/09/19 18:13:45;;;;;;;13.00;11.52;;;;;;;;;;4952985;28;20656;-75
2023/09/19 18:16:33;;;;;;;12.70;11.40;;;;;;;;;;4954426;28;20074;-76
2023/09/19 18:19:01;;;;;;;15.80;11.82;;;;;;;;;;4955587;28;20045;-73
2023/09/19 18:21:29;;;;;;;15.63;13.20;;;;;;;;;;4955232;28;20057;-73
2023/09/19 18:23:58;;;;;;;18.52;13.73;;;;;;;;;;4956632;28;20085;-75
2023/09/19 18:26:25;;;;;;;23.17;12.85;;;;;;;;;;4956320;28;20442;-74
2023/09/19 18:28:51;;;;;;;14.82;13.15;;;;;;;;;;4956739;28;20046;-76
2023/09/19 18:31:18;;;;;;;15.18;13.50;;;;;;;;;;4965083;28;20045;-75
2023/09/19 18:33:49;;;;;;;16.88;15.13;;;;;;;;;;4960837;28;20042;-74
2023/09/19 18:36:18;;;;;;;20.00;14.63;;;;;;;;;;4987081;28;20050;-75
2023/09/19 18:38:45;;;;;;;20.58;14.35;;;;;;;;;;4947637;28;20038;-76
2023/09/19 18:44:19;;;;;;;16.95;14.13;;;;;;;;;;4960601;28;20066;-75
2023/09/19 18:46:47;;;;;;;17.05;13.55;;;;;;;;;;4937544;28;20073;-74
2023/09/19 18:49:13;;;;;;;16.20;14.05;;;;;;;;;;4971608;28;20046;-75
2023/09/19 18:51:43;;;;;;;14.48;11.95;;;;;;;;;;4940742;28;20635;-74
2023/09/19 18:54:13;;;;;;;17.08;12.63;;;;;;;;;;4940745;28;20042;-74
2023/09/19 18:56:41;;;;;;;14.15;11.75;;;;;;;;;;4968501;28;20035;-75
2023/09/19 18:59:07;;;;;;;17.48;13.25;;;;;;;;;;4916328;28;20043;-75
2023/09/19 19:01:33;;;;;;;12.57;11.27;;;;;;;;;;4922974;28;20053;-75
2023/09/19 19:03:59;;;;;;;18.55;13.98;;;;;;;;;;4923880;28;20624;-75
2023/09/19 19:06:31;;;;;;;16.38;13.60;;;;;;;;;;4928598;28;20043;-75
2023/09/19 19:08:57;;;;;;;14.65;11.45;;;;;;;;;;4943724;28;20434;-75
2023/09/19 19:11:25;;;;;;;14.40;12.98;;;;;;;;;;4937642;28;20070;-74
2023/09/19 19:13:52;;;;;;;12.63;11.52;;;;;;;;;;4919600;28;20039;-74
2023/09/19 19:16:19;;;;;;;14.35;12.40;;;;;;;;;;4921284;28;20038;-75
2023/09/19 19:18:45;;;;;;;13.63;12.18;;;;;;;;;;4953065;28;20043;-75
2023/09/19 19:21:15;;;;;;;11.85;10.65;;;;;;;;;;4922070;28;20055;-75
2023/09/19 19:23:51;;;;;;;15.02;12.40;;;;;;;;;;4928028;28;20055;-76
2023/09/19 19:26:22;;;;;;;22.95;17.80;;;;;;;;;;4924294;28;20042;-75
2023/09/19 19:28:49;;;;;;;16.25;14.68;;;;;;;;;;4940766;28;20047;-75
2023/09/19 19:31:17;;;;;;;14.45;12.98;;;;;;;;;;4924521;28;20217;-76
2023/09/19 19:33:43;;;;;;;14.02;12.30;;;;;;;;;;4929305;28;20042;-75
2023/09/19 19:36:10;;;;;;;14.75;12.27;;;;;;;;;;4943386;28;20050;-76
2023/09/19 19:38:42;;;;;;;16.63;11.23;;;;;;;;;;4943507;28;20046;-75
2023/09/19 19:41:08;;;;;;;18.13;11.70;;;;;;;;;;4976181;28;20097;-76
2023/09/19 19:43:38;;;;;;;13.03;11.63;;;;;;;;;;4961174;28;20057;-76
2023/09/19 19:46:06;;;;;;;12.00;10.85;;;;;;;;;;4959908;28;20042;-76
2023/09/19 19:48:34;;;;;;;14.40;11.57;;;;;;;;;;4943305;28;20042;-76
2023/09/19 19:51:06;;;;;;;12.65;11.35;;;;;;;;;;4943696;28;20424;-76
2023/09/19 19:53:33;;;;;;;11.40;9.98;;;;;;;;;;4943423;28;20607;-74
2023/09/19 19:55:59;;;;;;;12.63;10.75;;;;;;;;;;4958505;28;20493;-75
2023/09/19 19:58:28;;;;;;;12.00;8.55;;;;;;;;;;4926636;28;20034;-76
2023/09/19 20:00:55;;;;;;;11.85;10.65;;;;;;;;;;4991892;28;20065;-76
2023/09/19 20:03:21;;;;;;;12.38;11.20;;;;;;;;;;4952917;28;20047;-76
2023/09/19 20:05:49;;;;;;;12.50;11.20;;;;;;;;;;4956922;28;20404;-76
2023/09/19 20:08:18;;;;;;;16.02;10.75;;;;;;;;;;4952451;28;20438;-76
2023/09/19 20:10:45;;;;;;;12.50;11.30;;;;;;;;;;4939450;28;20046;-76
2023/09/19 20:13:13;;;;;;;11.55;10.35;;;;;;;;;;4926478;28;20049;-77
2023/09/19 20:15:38;;;;;;;12.63;11.32;;;;;;;;;;4982731;28;20413;-75
2023/09/19 20:18:12;;;;;;;14.32;11.07;;;;;;;;;;4924042;28;20046;-76
2023/09/19 20:20:45;;;;;;;12.60;10.63;;;;;;;;;;4959218;28;20104;-76
2023/09/19 20:23:12;;;;;;;12.40;10.05;;;;;;;;;;4968681;28;20584;-75
2023/09/19 20:25:39;;;;;;;12.45;10.82;;;;;;;;;;4939992;28;20051;-75
2023/09/19 20:28:05;;;;;;;12.75;10.52;;;;;;;;;;4957929;28;20288;-75
2023/09/19 20:30:33;;;;;;;20.08;10.75;;;;;;;;;;4957486;28;20668;-77
2023/09/19 20:33:02;;;;;;;11.40;10.23;;;;;;;;;;4940803;28;20046;-76
2023/09/19 20:35:28;;;;;;;14.43;10.73;;;;;;;;;;4939381;28;20054;-76
2023/09/19 20:38:00;;;;;;;11.43;9.85;;;;;;;;;;4950033;28;20039;-76
2023/09/19 20:40:36;;;;;;;10.95;9.95;;;;;;;;;;4952896;28;20053;-76
2023/09/19 20:43:02;;;;;;;11.32;10.35;;;;;;;;;;4968951;28;20411;-75
2023/09/19 20:45:28;;;;;;;18.85;11.02;;;;;;;;;;4949636;28;20112;-77
2023/09/19 20:47:58;;;;;;;11.75;10.50;;;;;;;;;;4958810;28;20038;-76
2023/09/19 20:50:24;;;;;;;17.63;10.05;;;;;;;;;;4929166;28;20137;-75
2023/09/19 20:52:50;;;;;;;12.68;10.40;;;;;;;;;;4942683;28;20034;-76
2023/09/19 20:55:17;;;;;;;11.40;10.40;;;;;;;;;;4958554;28;20043;-75
2023/09/19 20:57:46;;;;;;;11.93;10.45;;;;;;;;;;4934743;28;20050;-76
2023/09/19 21:00:13;;;;;;;14.82;9.75;;;;;;;;;;4932454;28;20038;-76
2023/09/19 21:02:39;;;;;;;10.82;9.82;;;;;;;;;;4959131;28;20050;-76
2023/09/19 21:05:05;;;;;;;11.95;10.35;;;;;;;;;;4959732;28;20054;-77
2023/09/19 21:07:31;;;;;;;15.18;10.00;;;;;;;;;;4940004;28;20034;-76
2023/09/19 21:09:58;;;;;;;12.68;9.25;;;;;;;;;;4924703;28;20435;-75
2023/09/19 21:12:24;;;;;;;10.40;9.40;;;;;;;;;;4938820;28;20134;-76
2023/09/19 21:14:52;;;;;;;10.68;9.65;;;;;;;;;;4992183;28;20034;-76
2023/09/19 21:17:22;;;;;;;11.07;9.73;;;;;;;;;;4957708;28;20129;-76
2023/09/19 21:19:52;;;;;;;11.75;9.30;;;;;;;;;;4975931;28;20038;-77
2023/09/19 21:22:18;;;;;;;12.52;9.13;;;;;;;;;;4941562;28;20042;-77
2023/09/19 21:24:47;;;;;;;12.18;9.57;;;;;;;;;;4955822;28;20046;-74
2023/09/19 21:27:14;;;;;;;10.00;9.05;;;;;;;;;;4977169;28;20053;-74
2023/09/19 21:29:40;;;;;;;10.73;9.70;;;;;;;;;;4941437;28;20487;-75
2023/09/19 21:32:07;;;;;;;11.00;9.40;;;;;;;;;;4991176;28;20565;-75
2023/09/19 21:34:33;;;;;;;11.13;9.30;;;;;;;;;;4955593;28;20120;-75
2023/09/19 21:37:00;;;;;;;9.13;8.43;;;;;;;;;;4936146;28;20046;-74
2023/09/19 21:39:26;;;;;;;12.10;8.80;;;;;;;;;;4941849;28;20418;-75
2023/09/19 21:41:53;;;;;;;13.80;9.48;;;;;;;;;;4937375;28;20038;-75
2023/09/19 21:44:23;;;;;;;15.63;8.65;;;;;;;;;;4941337;28;20055;-75
2023/09/19 21:46:49;;;;;;;10.25;8.57;;;;;;;;;;4941321;28;20141;-75
2023/09/19 21:49:16;;;;;;;10.95;9.60;;;;;;;;;;4941208;28;20542;-75
2023/09/19 21:51:42;;;;;;;10.68;9.70;;;;;;;;;;4942063;28;20053;-76
2023/09/19 21:54:08;;;;;;;14.27;9.35;;;;;;;;;;4941738;28;20045;-75
2023/09/19 21:56:36;;;;;;;11.10;8.63;;;;;;;;;;4941695;28;20138;-73
2023/09/19 21:59:02;;;;;;;10.05;9.15;;;;;;;;;;4926274;28;20042;-74
2023/09/19 22:01:29;;;;;;;10.18;9.32;;;;;;;;;;4973822;28;20125;-75
2023/09/19 22:03:56;;;;;;;9.15;8.35;;;;;;;;;;4941799;28;20043;-74
2023/09/19 22:06:26;;;;;;;9.57;8.57;;;;;;;;;;4958835;28;20069;-75
2023/09/19 22:08:53;;;;;;;9.85;8.95;;;;;;;;;;4941243;28;20046;-75
2023/09/19 22:11:22;;;;;;;12.40;9.60;;;;;;;;;;4938737;28;20145;-73